createdAt,value
2023-03-23T16:00:44.503Z,1.13
2023-03-23T16:05:47.934Z,1.38
2023-03-23T16:10:51.701Z,1.40
2023-03-23T16:15:56.297Z,1.13
2023-03-23T16:20:59.702Z,1.00
2023-03-23T16:26:03.771Z,1.48
2023-03-23T16:31:08.768Z,1.05
2023-03-23T16:36:13.398Z,1.25
2023-03-23T16:41:17.375Z,1.30
2023-03-23T16:46:22.291Z,1.52
2023-03-23T16:51:25.808Z,1.20
2023-03-23T16:56:29.586Z,1.40
2023-03-23T17:01:34.754Z,1.90
2023-03-23T17:06:38.109Z,1.30
2023-03-23T17:11:42.337Z,1.37
2023-03-23T17:16:46.981Z,1.30
2023-03-23T17:21:51.489Z,1.40
2023-03-23T17:26:55.589Z,1.48
2023-03-23T17:32:00.346Z,1.23
2023-03-23T17:37:03.990Z,1.88
2023-03-23T17:42:07.235Z,1.35
2023-03-23T17:47:12.570Z,1.10
2023-03-23T17:52:16.112Z,1.52
2023-03-23T17:57:20.130Z,1.10
2023-03-23T18:02:25.561Z,1.65
2023-03-23T18:07:28.847Z,1.52
2023-03-23T18:12:32.135Z,1.40
2023-03-23T18:17:37.265Z,1.48
2023-03-23T18:22:40.704Z,1.70
2023-03-23T18:27:44.335Z,1.55
2023-03-23T18:32:49.011Z,1.65
2023-03-23T18:37:52.316Z,1.70
2023-03-23T18:42:56.068Z,2.65
2023-03-23T18:48:00.932Z,1.25
2023-03-23T18:53:04.240Z,1.55
2023-03-23T18:58:07.822Z,1.83
2023-03-23T19:03:13.835Z,2.03
2023-03-23T19:08:18.277Z,2.53
2023-03-23T19:13:21.496Z,2.90
2023-03-23T19:18:26.406Z,2.20
2023-03-23T19:23:30.063Z,1.83
2023-03-23T19:29:18.776Z,1.65
2023-03-23T19:33:58.568Z,1.83
2023-03-23T19:39:04.813Z,2.38
2023-03-23T19:44:08.573Z,2.05
2023-03-23T19:49:14.661Z,1.90
2023-03-23T19:54:18.249Z,1.98
2023-03-23T19:59:21.551Z,1.88
2023-03-23T20:04:27.216Z,1.67
2023-03-23T20:09:31.123Z,2.17
2023-03-23T20:14:35.154Z,2.47
2023-03-23T20:19:40.373Z,2.60
2023-03-23T20:24:47.461Z,2.08
2023-03-23T20:29:52.420Z,1.80
2023-03-23T20:40:01.909Z,1.77
2023-03-23T20:45:06.575Z,1.60
2023-03-23T20:50:12.479Z,2.53
2023-03-23T20:55:15.795Z,2.10
2023-03-23T21:00:19.209Z,1.98
2023-03-23T21:05:24.769Z,1.90
2023-03-23T21:10:28.566Z,1.80
2023-03-23T21:15:33.622Z,2.13
2023-03-23T21:20:38.905Z,3.55
2023-03-23T21:25:44.646Z,3.22
2023-03-23T21:30:48.862Z,4.03
2023-03-23T21:35:53.604Z,2.65
2023-03-23T21:40:58.747Z,2.45
2023-03-23T21:46:05.537Z,2.20
2023-03-23T21:51:14.259Z,2.50
2023-03-23T21:56:18.866Z,2.83
2023-03-23T22:01:22.722Z,3.50
2023-03-23T22:06:28.275Z,2.95
2023-03-23T22:11:32.659Z,2.67
2023-03-23T22:16:36.348Z,3.10
2023-03-23T22:21:41.025Z,3.28
2023-03-23T22:26:44.320Z,3.28
2023-03-23T22:31:47.831Z,2.97
2023-03-23T22:36:52.558Z,3.13
2023-03-23T22:41:56.572Z,3.33
2023-03-23T22:46:59.928Z,3.33
2023-03-23T22:52:04.834Z,3.42
2023-03-23T22:57:08.231Z,3.28
2023-03-23T23:02:12.161Z,3.70
2023-03-23T23:07:17.355Z,3.50
2023-03-23T23:12:21.684Z,3.20
2023-03-23T23:17:26.591Z,3.30
2023-03-23T23:22:31.389Z,3.55
2023-03-23T23:27:34.076Z,3.30
2023-03-23T23:32:37.916Z,4.10
2023-03-23T23:37:43.095Z,3.63
2023-03-23T23:42:48.644Z,4.20
2023-03-23T23:47:51.990Z,3.38
2023-03-23T23:52:58.629Z,3.92
2023-03-23T23:58:01.871Z,3.33
